sensor_id;sensor_type;location;lat;lon;timestamp;temperature;humidity
7598;DHT22;3840;59.32098800;18.06423600;2023-06-10T00:01:13;9.30;99.90
7598;DHT22;3840;59.32098800;18.06423600;2023-06-10T00:03:40;9.30;99.90
7598;DHT22;3840;59.32098800;18.06423600;2023-06-10T00:06:06;9.30;99.90
7598;DHT22;3840;59.32098800;18.06423600;2023-06-10T00:08:32;9.30;99.90
7598;DHT22;3840;59.32098800;18.06423600;2023-06-10T00:10:58;9.20;99.90
7598;DHT22;3840;59.32098800;18.06423600;2023-06-10T00:13:24;9.20;99.90
7598;DHT22;3840;59.32098800;18.06423600;2023-06-10T00:15:50;9.20;99.90
7598;DHT22;3840;59.32098800;18.06423600;2023-06-10T00:18:16;9.20;99.90
7598;DHT22;3840;59.32098800;18.06423600;2023-06-10T00:20:42;9.20;99.90
7598;DHT22;3840;59.32098800;18.06423600;2023-06-10T00:23:08;9.20;99.90
7598;DHT22;3840;59.32098800;18.06423600;2023-06-10T00:25:35;9.20;99.90
7598;DHT22;3840;59.32098800;18.06423600;2023-06-10T00:28:01;9.20;99.90
7598;DHT22;3840;59.32098800;18.06423600;2023-06-10T00:30:27;9.20;99.90
7598;DHT22;3840;59.32098800;18.06423600;2023-06-10T00:32:53;9.10;99.90
7598;DHT22;3840;59.32098800;18.06423600;2023-06-10T00:35:18;9.10;99.90
7598;DHT22;3840;59.32098800;18.06423600;2023-06-10T00:37:44;9.10;99.90
7598;DHT22;3840;59.32098800;18.06423600;2023-06-10T00:40:11;9.00;99.90
7598;DHT22;3840;59.32098800;18.06423600;2023-06-10T00:42:37;9.00;99.90
7598;DHT22;3840;59.32098800;18.06423600;2023-06-10T00:45:05;9.00;99.90
7598;DHT22;3840;59.32098800;18.06423600;2023-06-10T00:47:31;9.00;99.90
7598;DHT22;3840;59.32098800;18.06423600;2023-06-10T00:49:57;9.00;99.90
7598;DHT22;3840;59.32098800;18.06423600;2023-06-10T00:52:26;9.00;99.90
7598;DHT22;3840;59.32098800;18.06423600;2023-06-10T00:54:53;9.00;99.90
7598;DHT22;3840;59.32098800;18.06423600;2023-06-10T00:57:19;9.00;99.90
7598;DHT22;3840;59.32098800;18.06423600;2023-06-10T00:59:48;9.00;99.90
7598;DHT22;3840;59.32098800;18.06423600;2023-06-10T01:02:14;9.00;99.90
7598;DHT22;3840;59.32098800;18.06423600;2023-06-10T01:04:40;9.10;99.90
7598;DHT22;3840;59.32098800;18.06423600;2023-06-10T01:07:25;9.10;99.90
7598;DHT22;3840;59.32098800;18.06423600;2023-06-10T01:10:06;9.20;99.90
7598;DHT22;3840;59.32098800;18.06423600;2023-06-10T01:12:58;9.20;99.90
7598;DHT22;3840;59.32098800;18.06423600;2023-06-10T01:15:25;9.20;99.90
7598;DHT22;3840;59.32098800;18.06423600;2023-06-10T01:18:04;9.10;99.90
7598;DHT22;3840;59.32098800;18.06423600;2023-06-10T01:20:34;9.20;99.90
7598;DHT22;3840;59.32098800;18.06423600;2023-06-10T01:23:03;9.10;99.90
7598;DHT22;3840;59.32098800;18.06423600;2023-06-10T01:25:29;9.10;99.90
7598;DHT22;3840;59.32098800;18.06423600;2023-06-10T01:30:46;9.00;99.90
7598;DHT22;3840;59.32098800;18.06423600;2023-06-10T01:33:19;9.10;99.90
7598;DHT22;3840;59.32098800;18.06423600;2023-06-10T01:35:48;9.00;99.90
7598;DHT22;3840;59.32098800;18.06423600;2023-06-10T01:38:15;9.00;99.90
7598;DHT22;3840;59.32098800;18.06423600;2023-06-10T01:40:43;9.10;99.90
7598;DHT22;3840;59.32098800;18.06423600;2023-06-10T01:43:09;9.00;99.90
7598;DHT22;3840;59.32098800;18.06423600;2023-06-10T01:45:34;9.00;99.90
7598;DHT22;3840;59.32098800;18.06423600;2023-06-10T01:48:00;9.00;99.90
7598;DHT22;3840;59.32098800;18.06423600;2023-06-10T01:50:26;9.00;99.90
7598;DHT22;3840;59.32098800;18.06423600;2023-06-10T01:52:51;9.00;99.90
7598;DHT22;3840;59.32098800;18.06423600;2023-06-10T01:55:17;9.00;99.90
7598;DHT22;3840;59.32098800;18.06423600;2023-06-10T01:57:43;8.90;99.90
7598;DHT22;3840;59.32098800;18.06423600;2023-06-10T02:00:09;9.00;99.90
7598;DHT22;3840;59.32098800;18.06423600;2023-06-10T02:02:35;9.00;99.90
7598;DHT22;3840;59.32098800;18.06423600;2023-06-10T02:05:01;9.00;99.90
7598;DHT22;3840;59.32098800;18.06423600;2023-06-10T02:07:27;9.00;99.90
7598;DHT22;3840;59.32098800;18.06423600;2023-06-10T02:09:52;9.10;99.90
7598;DHT22;3840;59.32098800;18.06423600;2023-06-10T02:12:18;9.20;99.90
7598;DHT22;3840;59.32098800;18.06423600;2023-06-10T02:14:44;9.60;99.90
7598;DHT22;3840;59.32098800;18.06423600;2023-06-10T02:17:09;10.30;99.90
7598;DHT22;3840;59.32098800;18.06423600;2023-06-10T02:19:38;11.00;99.90
7598;DHT22;3840;59.32098800;18.06423600;2023-06-10T02:22:08;11.40;99.90
7598;DHT22;3840;59.32098800;18.06423600;2023-06-10T02:24:36;11.60;99.90
7598;DHT22;3840;59.32098800;18.06423600;2023-06-10T02:27:04;11.50;99.90
7598;DHT22;3840;59.32098800;18.06423600;2023-06-10T02:29:33;11.00;99.90
7598;DHT22;3840;59.32098800;18.06423600;2023-06-10T02:31:59;10.80;99.90
7598;DHT22;3840;59.32098800;18.06423600;2023-06-10T02:34:25;11.40;99.90
7598;DHT22;3840;59.32098800;18.06423600;2023-06-10T02:36:51;12.00;99.90
7598;DHT22;3840;59.32098800;18.06423600;2023-06-10T02:39:17;12.00;99.90
7598;DHT22;3840;59.32098800;18.06423600;2023-06-10T02:41:43;12.40;99.90
7598;DHT22;3840;59.32098800;18.06423600;2023-06-10T02:44:09;12.50;99.90
7598;DHT22;3840;59.32098800;18.06423600;2023-06-10T02:46:34;12.50;99.90
7598;DHT22;3840;59.32098800;18.06423600;2023-06-10T02:49:00;13.10;99.90
7598;DHT22;3840;59.32098800;18.06423600;2023-06-10T02:51:26;13.60;99.90
7598;DHT22;3840;59.32098800;18.06423600;2023-06-10T02:53:52;13.90;99.90
7598;DHT22;3840;59.32098800;18.06423600;2023-06-10T02:56:18;13.80;99.90
7598;DHT22;3840;59.32098800;18.06423600;2023-06-10T02:58:44;13.20;99.90
7598;DHT22;3840;59.32098800;18.06423600;2023-06-10T03:01:12;13.80;99.90
7598;DHT22;3840;59.32098800;18.06423600;2023-06-10T03:03:38;13.90;99.90
7598;DHT22;3840;59.32098800;18.06423600;2023-06-10T03:06:09;14.30;99.90
7598;DHT22;3840;59.32098800;18.06423600;2023-06-10T03:08:36;14.70;99.90
7598;DHT22;3840;59.32098800;18.06423600;2023-06-10T03:11:02;15.00;99.90
7598;DHT22;3840;59.32098800;18.06423600;2023-06-10T03:13:27;15.50;99.90
7598;DHT22;3840;59.32098800;18.06423600;2023-06-10T03:15:53;15.20;99.90
7598;DHT22;3840;59.32098800;18.06423600;2023-06-10T03:18:18;15.00;99.90
7598;DHT22;3840;59.32098800;18.06423600;2023-06-10T03:20:44;15.10;99.90
7598;DHT22;3840;59.32098800;18.06423600;2023-06-10T03:23:10;15.10;99.90
7598;DHT22;3840;59.32098800;18.06423600;2023-06-10T03:25:36;15.60;99.90
7598;DHT22;3840;59.32098800;18.06423600;2023-06-10T03:28:02;15.60;99.90
7598;DHT22;3840;59.32098800;18.06423600;2023-06-10T03:30:28;15.90;99.90
7598;DHT22;3840;59.32098800;18.06423600;2023-06-10T03:32:54;16.40;99.90
7598;DHT22;3840;59.32098800;18.06423600;2023-06-10T03:35:20;16.70;99.90
7598;DHT22;3840;59.32098800;18.06423600;2023-06-10T03:37:46;16.80;99.90
7598;DHT22;3840;59.32098800;18.06423600;2023-06-10T03:40:12;17.10;99.90
7598;DHT22;3840;59.32098800;18.06423600;2023-06-10T03:42:37;17.40;99.90
7598;DHT22;3840;59.32098800;18.06423600;2023-06-10T03:45:03;17.60;99.90
7598;DHT22;3840;59.32098800;18.06423600;2023-06-10T03:47:34;16.60;99.90
7598;DHT22;3840;59.32098800;18.06423600;2023-06-10T03:50:04;16.10;99.90
7598;DHT22;3840;59.32098800;18.06423600;2023-06-10T03:52:30;15.60;99.90
7598;DHT22;3840;59.32098800;18.06423600;2023-06-10T03:54:56;15.50;99.90
7598;DHT22;3840;59.32098800;18.06423600;2023-06-10T03:57:22;15.40;99.90
7598;DHT22;3840;59.32098800;18.06423600;2023-06-10T03:59:48;16.10;99.90
7598;DHT22;3840;59.32098800;18.06423600;2023-06-10T04:02:14;16.50;99.90
7598;DHT22;3840;59.32098800;18.06423600;2023-06-10T04:04:40;17.20;99.90
7598;DHT22;3840;59.32098800;18.06423600;2023-06-10T04:07:06;17.90;99.90
7598;DHT22;3840;59.32098800;18.06423600;2023-06-10T04:09:33;17.10;99.90
7598;DHT22;3840;59.32098800;18.06423600;2023-06-10T04:11:59;17.00;99.90
7598;DHT22;3840;59.32098800;18.06423600;2023-06-10T04:14:25;16.90;99.90
7598;DHT22;3840;59.32098800;18.06423600;2023-06-10T04:16:50;17.10;99.90
7598;DHT22;3840;59.32098800;18.06423600;2023-06-10T04:19:16;16.70;99.90
7598;DHT22;3840;59.32098800;18.06423600;2023-06-10T04:21:42;16.80;99.90
7598;DHT22;3840;59.32098800;18.06423600;2023-06-10T04:24:08;17.10;99.90
7598;DHT22;3840;59.32098800;18.06423600;2023-06-10T04:26:35;16.80;99.90
7598;DHT22;3840;59.32098800;18.06423600;2023-06-10T04:29:01;17.20;99.90
7598;DHT22;3840;59.32098800;18.06423600;2023-06-10T04:31:27;17.80;99.90
7598;DHT22;3840;59.32098800;18.06423600;2023-06-10T04:33:53;17.80;99.90
7598;DHT22;3840;59.32098800;18.06423600;2023-06-10T04:36:19;18.80;99.90
7598;DHT22;3840;59.32098800;18.06423600;2023-06-10T04:38:44;18.70;99.90
7598;DHT22;3840;59.32098800;18.06423600;2023-06-10T04:41:11;19.00;99.90
7598;DHT22;3840;59.32098800;18.06423600;2023-06-10T04:43:36;18.90;99.90
7598;DHT22;3840;59.32098800;18.06423600;2023-06-10T04:46:02;18.20;99.90
7598;DHT22;3840;59.32098800;18.06423600;2023-06-10T04:48:28;17.70;99.90
7598;DHT22;3840;59.32098800;18.06423600;2023-06-10T04:50:54;17.10;99.90
7598;DHT22;3840;59.32098800;18.06423600;2023-06-10T04:53:20;17.70;99.90
7598;DHT22;3840;59.32098800;18.06423600;2023-06-10T04:55:46;17.80;99.90
7598;DHT22;3840;59.32098800;18.06423600;2023-06-10T04:58:12;17.60;99.90
7598;DHT22;3840;59.32098800;18.06423600;2023-06-10T05:00:37;17.80;99.90
7598;DHT22;3840;59.32098800;18.06423600;2023-06-10T05:03:03;17.30;99.90
7598;DHT22;3840;59.32098800;18.06423600;2023-06-10T05:05:29;16.40;99.90
7598;DHT22;3840;59.32098800;18.06423600;2023-06-10T05:07:54;15.80;99.90
7598;DHT22;3840;59.32098800;18.06423600;2023-06-10T05:10:20;15.40;99.90
7598;DHT22;3840;59.32098800;18.06423600;2023-06-10T05:12:46;14.90;99.90
7598;DHT22;3840;59.32098800;18.06423600;2023-06-10T05:15:12;14.60;99.90
7598;DHT22;3840;59.32098800;18.06423600;2023-06-10T05:17:37;14.50;99.90
7598;DHT22;3840;59.32098800;18.06423600;2023-06-10T05:20:04;14.40;99.90
7598;DHT22;3840;59.32098800;18.06423600;2023-06-10T05:22:30;14.20;99.90
7598;DHT22;3840;59.32098800;18.06423600;2023-06-10T05:24:55;14.20;99.90
7598;DHT22;3840;59.32098800;18.06423600;2023-06-10T05:27:22;14.30;99.90
7598;DHT22;3840;59.32098800;18.06423600;2023-06-10T05:29:47;14.10;99.90
7598;DHT22;3840;59.32098800;18.06423600;2023-06-10T05:32:13;13.80;99.90
7598;DHT22;3840;59.32098800;18.06423600;2023-06-10T05:34:39;13.90;99.90
7598;DHT22;3840;59.32098800;18.06423600;2023-06-10T05:37:05;13.80;99.90
7598;DHT22;3840;59.32098800;18.06423600;2023-06-10T05:39:31;14.10;99.90
7598;DHT22;3840;59.32098800;18.06423600;2023-06-10T05:41:57;14.20;99.90
7598;DHT22;3840;59.32098800;18.06423600;2023-06-10T05:44:24;14.10;99.90
7598;DHT22;3840;59.32098800;18.06423600;2023-06-10T05:46:50;14.20;99.90
7598;DHT22;3840;59.32098800;18.06423600;2023-06-10T05:49:16;14.50;99.90
7598;DHT22;3840;59.32098800;18.06423600;2023-06-10T05:51:42;14.10;99.90
7598;DHT22;3840;59.32098800;18.06423600;2023-06-10T05:54:07;14.20;99.90
7598;DHT22;3840;59.32098800;18.06423600;2023-06-10T05:56:33;14.30;99.90
7598;DHT22;3840;59.32098800;18.06423600;2023-06-10T05:58:59;14.40;99.90
7598;DHT22;3840;59.32098800;18.06423600;2023-06-10T06:01:25;14.60;99.90
7598;DHT22;3840;59.32098800;18.06423600;2023-06-10T06:03:50;14.90;99.90
7598;DHT22;3840;59.32098800;18.06423600;2023-06-10T06:06:16;14.90;99.90
7598;DHT22;3840;59.32098800;18.06423600;2023-06-10T06:08:42;15.00;99.90
7598;DHT22;3840;59.32098800;18.06423600;2023-06-10T06:11:08;14.90;99.90
7598;DHT22;3840;59.32098800;18.06423600;2023-06-10T06:13:34;15.00;99.90
7598;DHT22;3840;59.32098800;18.06423600;2023-06-10T06:16:00;15.10;99.90
7598;DHT22;3840;59.32098800;18.06423600;2023-06-10T06:18:25;15.20;99.90
7598;DHT22;3840;59.32098800;18.06423600;2023-06-10T06:20:51;15.20;99.90
7598;DHT22;3840;59.32098800;18.06423600;2023-06-10T06:23:17;15.10;99.90
7598;DHT22;3840;59.32098800;18.06423600;2023-06-10T06:25:42;15.00;99.90
7598;DHT22;3840;59.32098800;18.06423600;2023-06-10T06:28:10;15.10;99.90
7598;DHT22;3840;59.32098800;18.06423600;2023-06-10T06:30:35;15.20;99.90
7598;DHT22;3840;59.32098800;18.06423600;2023-06-10T06:33:02;15.40;99.90
7598;DHT22;3840;59.32098800;18.06423600;2023-06-10T06:35:31;15.30;99.90
7598;DHT22;3840;59.32098800;18.06423600;2023-06-10T06:37:57;15.00;99.90
7598;DHT22;3840;59.32098800;18.06423600;2023-06-10T06:40:24;15.20;99.90
7598;DHT22;3840;59.32098800;18.06423600;2023-06-10T06:42:50;15.30;99.90
7598;DHT22;3840;59.32098800;18.06423600;2023-06-10T06:45:15;15.30;99.90
7598;DHT22;3840;59.32098800;18.06423600;2023-06-10T06:47:41;15.30;99.90
7598;DHT22;3840;59.32098800;18.06423600;2023-06-10T06:50:09;15.60;99.90
7598;DHT22;3840;59.32098800;18.06423600;2023-06-10T06:52:35;15.70;99.90
7598;DHT22;3840;59.32098800;18.06423600;2023-06-10T06:55:00;15.70;99.90
7598;DHT22;3840;59.32098800;18.06423600;2023-06-10T06:57:26;15.80;99.90
7598;DHT22;3840;59.32098800;18.06423600;2023-06-10T06:59:52;15.90;99.90
7598;DHT22;3840;59.32098800;18.06423600;2023-06-10T07:02:18;15.90;99.90
7598;DHT22;3840;59.32098800;18.06423600;2023-06-10T07:04:44;16.00;99.90
7598;DHT22;3840;59.32098800;18.06423600;2023-06-10T07:07:11;16.00;99.90
7598;DHT22;3840;59.32098800;18.06423600;2023-06-10T07:09:37;16.00;99.90
7598;DHT22;3840;59.32098800;18.06423600;2023-06-10T07:12:03;16.00;99.90
7598;DHT22;3840;59.32098800;18.06423600;2023-06-10T07:14:29;16.10;99.90
7598;DHT22;3840;59.32098800;18.06423600;2023-06-10T07:16:55;16.20;99.90
7598;DHT22;3840;59.32098800;18.06423600;2023-06-10T07:19:21;16.20;99.90
7598;DHT22;3840;59.32098800;18.06423600;2023-06-10T07:21:47;16.30;99.90
7598;DHT22;3840;59.32098800;18.06423600;2023-06-10T07:24:13;16.40;99.90
7598;DHT22;3840;59.32098800;18.06423600;2023-06-10T07:26:38;16.30;99.90
7598;DHT22;3840;59.32098800;18.06423600;2023-06-10T07:29:04;16.30;99.90
7598;DHT22;3840;59.32098800;18.06423600;2023-06-10T07:31:30;16.30;99.90
7598;DHT22;3840;59.32098800;18.06423600;2023-06-10T07:33:55;16.50;99.90
7598;DHT22;3840;59.32098800;18.06423600;2023-06-10T07:36:21;16.60;99.90
7598;DHT22;3840;59.32098800;18.06423600;2023-06-10T07:38:48;16.60;99.90
7598;DHT22;3840;59.32098800;18.06423600;2023-06-10T07:41:14;16.60;99.90
7598;DHT22;3840;59.32098800;18.06423600;2023-06-10T07:43:42;16.50;99.90
7598;DHT22;3840;59.32098800;18.06423600;2023-06-10T07:46:07;16.50;99.90
7598;DHT22;3840;59.32098800;18.06423600;2023-06-10T07:48:33;16.50;99.90
7598;DHT22;3840;59.32098800;18.06423600;2023-06-10T07:50:59;16.60;99.90
7598;DHT22;3840;59.32098800;18.06423600;2023-06-10T07:53:24;16.80;99.90
7598;DHT22;3840;59.32098800;18.06423600;2023-06-10T07:55:50;16.80;99.90
7598;DHT22;3840;59.32098800;18.06423600;2023-06-10T07:58:16;16.90;99.90
7598;DHT22;3840;59.32098800;18.06423600;2023-06-10T08:00:41;17.00;99.90
7598;DHT22;3840;59.32098800;18.06423600;2023-06-10T08:03:07;17.10;99.90
7598;DHT22;3840;59.32098800;18.06423600;2023-06-10T08:05:33;17.10;99.90
7598;DHT22;3840;59.32098800;18.06423600;2023-06-10T08:07:59;17.10;99.90
7598;DHT22;3840;59.32098800;18.06423600;2023-06-10T08:10:24;17.30;99.90
7598;DHT22;3840;59.32098800;18.06423600;2023-06-10T08:12:50;17.30;99.90
7598;DHT22;3840;59.32098800;18.06423600;2023-06-10T08:15:16;17.30;99.90
7598;DHT22;3840;59.32098800;18.06423600;2023-06-10T08:17:41;17.20;99.90
7598;DHT22;3840;59.32098800;18.06423600;2023-06-10T08:20:07;17.10;99.90
7598;DHT22;3840;59.32098800;18.06423600;2023-06-10T08:22:33;17.10;99.90
7598;DHT22;3840;59.32098800;18.06423600;2023-06-10T08:24:59;17.20;99.90
7598;DHT22;3840;59.32098800;18.06423600;2023-06-10T08:27:25;17.20;99.90
7598;DHT22;3840;59.32098800;18.06423600;2023-06-10T08:29:51;17.30;99.90
7598;DHT22;3840;59.32098800;18.06423600;2023-06-10T08:32:16;17.30;99.90
7598;DHT22;3840;59.32098800;18.06423600;2023-06-10T08:34:42;17.30;99.90
7598;DHT22;3840;59.32098800;18.06423600;2023-06-10T08:37:08;17.30;99.90
7598;DHT22;3840;59.32098800;18.06423600;2023-06-10T08:39:33;17.40;99.80
7598;DHT22;3840;59.32098800;18.06423600;2023-06-10T08:44:54;17.60;99.10
7598;DHT22;3840;59.32098800;18.06423600;2023-06-10T08:47:23;17.60;99.10
7598;DHT22;3840;59.32098800;18.06423600;2023-06-10T08:49:51;17.70;99.50
7598;DHT22;3840;59.32098800;18.06423600;2023-06-10T08:52:20;17.70;99.90
7598;DHT22;3840;59.32098800;18.06423600;2023-06-10T08:54:56;17.80;99.50
7598;DHT22;3840;59.32098800;18.06423600;2023-06-10T08:57:22;17.80;99.30
7598;DHT22;3840;59.32098800;18.06423600;2023-06-10T08:59:48;17.70;99.00
7598;DHT22;3840;59.32098800;18.06423600;2023-06-10T09:02:15;17.70;98.70
7598;DHT22;3840;59.32098800;18.06423600;2023-06-10T09:04:44;17.50;98.90
7598;DHT22;3840;59.32098800;18.06423600;2023-06-10T09:07:12;17.70;99.00
7598;DHT22;3840;59.32098800;18.06423600;2023-06-10T09:09:40;17.70;98.70
7598;DHT22;3840;59.32098800;18.06423600;2023-06-10T09:12:07;17.50;98.60
7598;DHT22;3840;59.32098800;18.06423600;2023-06-10T09:14:33;17.50;98.60
7598;DHT22;3840;59.32098800;18.06423600;2023-06-10T09:16:59;17.50;98.80
7598;DHT22;3840;59.32098800;18.06423600;2023-06-10T09:19:25;17.60;98.80
7598;DHT22;3840;59.32098800;18.06423600;2023-06-10T09:21:52;17.60;99.10
7598;DHT22;3840;59.32098800;18.06423600;2023-06-10T09:24:18;17.70;99.40
7598;DHT22;3840;59.32098800;18.06423600;2023-06-10T09:26:44;17.90;99.70
7598;DHT22;3840;59.32098800;18.06423600;2023-06-10T09:29:11;18.10;99.50
7598;DHT22;3840;59.32098800;18.06423600;2023-06-10T09:31:39;18.00;99.60
7598;DHT22;3840;59.32098800;18.06423600;2023-06-10T09:34:14;18.00;99.30
7598;DHT22;3840;59.32098800;18.06423600;2023-06-10T09:36:41;18.10;98.90
7598;DHT22;3840;59.32098800;18.06423600;2023-06-10T09:39:17;18.10;98.90
7598;DHT22;3840;59.32098800;18.06423600;2023-06-10T09:41:44;18.10;98.60
7598;DHT22;3840;59.32098800;18.06423600;2023-06-10T09:44:19;17.60;97.70
7598;DHT22;3840;59.32098800;18.06423600;2023-06-10T09:46:47;18.00;96.90
7598;DHT22;3840;59.32098800;18.06423600;2023-06-10T09:49:13;18.20;96.50
7598;DHT22;3840;59.32098800;18.06423600;2023-06-10T09:51:55;18.10;96.10
7598;DHT22;3840;59.32098800;18.06423600;2023-06-10T09:54:21;18.30;96.00
7598;DHT22;3840;59.32098800;18.06423600;2023-06-10T09:56:52;18.40;97.70
7598;DHT22;3840;59.32098800;18.06423600;2023-06-10T09:59:30;18.40;98.90
7598;DHT22;3840;59.32098800;18.06423600;2023-06-10T10:01:57;18.30;96.00
7598;DHT22;3840;59.32098800;18.06423600;2023-06-10T10:04:26;18.40;95.60
7598;DHT22;3840;59.32098800;18.06423600;2023-06-10T10:06:53;18.40;95.00
7598;DHT22;3840;59.32098800;18.06423600;2023-06-10T10:09:19;18.40;95.30
7598;DHT22;3840;59.32098800;18.06423600;2023-06-10T10:11:46;18.40;96.10
7598;DHT22;3840;59.32098800;18.06423600;2023-06-10T10:14:13;18.30;97.00
7598;DHT22;3840;59.32098800;18.06423600;2023-06-10T10:16:42;18.40;98.90
7598;DHT22;3840;59.32098800;18.06423600;2023-06-10T10:19:16;18.30;99.60
7598;DHT22;3840;59.32098800;18.06423600;2023-06-10T10:21:53;18.30;98.80
7598;DHT22;3840;59.32098800;18.06423600;2023-06-10T10:24:33;18.50;96.10
7598;DHT22;3840;59.32098800;18.06423600;2023-06-10T10:27:01;18.50;97.50
7598;DHT22;3840;59.32098800;18.06423600;2023-06-10T10:29:38;18.50;97.70
7598;DHT22;3840;59.32098800;18.06423600;2023-06-10T10:32:06;18.50;99.10
7598;DHT22;3840;59.32098800;18.06423600;2023-06-10T10:34:42;18.60;99.10
7598;DHT22;3840;59.32098800;18.06423600;2023-06-10T10:37:09;18.60;99.90
7598;DHT22;3840;59.32098800;18.06423600;2023-06-10T10:39:36;18.70;99.90
7598;DHT22;3840;59.32098800;18.06423600;2023-06-10T10:42:03;18.70;99.90
7598;DHT22;3840;59.32098800;18.06423600;2023-06-10T10:44:30;18.80;99.90
7598;DHT22;3840;59.32098800;18.06423600;2023-06-10T10:46:56;18.70;99.90
7598;DHT22;3840;59.32098800;18.06423600;2023-06-10T10:49:27;18.70;99.70
7598;DHT22;3840;59.32098800;18.06423600;2023-06-10T10:51:58;18.70;99.10
7598;DHT22;3840;59.32098800;18.06423600;2023-06-10T11:02:31;18.60;99.90
7598;DHT22;3840;59.32098800;18.06423600;2023-06-10T11:04:57;18.50;99.90
7598;DHT22;3840;59.32098800;18.06423600;2023-06-10T11:07:25;18.60;99.90
7598;DHT22;3840;59.32098800;18.06423600;2023-06-10T11:10:06;18.40;99.90
7598;DHT22;3840;59.32098800;18.06423600;2023-06-10T11:15:12;18.40;99.90
7598;DHT22;3840;59.32098800;18.06423600;2023-06-10T11:18:11;18.40;99.90
7598;DHT22;3840;59.32098800;18.06423600;2023-06-10T11:36:19;18.40;99.90
7598;DHT22;3840;59.32098800;18.06423600;2023-06-10T11:38:45;18.50;99.60
7598;DHT22;3840;59.32098800;18.06423600;2023-06-10T11:41:11;18.50;99.90
7598;DHT22;3840;59.32098800;18.06423600;2023-06-10T11:43:43;18.50;99.20
7598;DHT22;3840;59.32098800;18.06423600;2023-06-10T11:46:10;18.60;99.30
7598;DHT22;3840;59.32098800;18.06423600;2023-06-10T11:48:35;18.70;99.50
7598;DHT22;3840;59.32098800;18.06423600;2023-06-10T11:51:05;18.60;99.30
7598;DHT22;3840;59.32098800;18.06423600;2023-06-10T11:53:31;18.60;99.10
7598;DHT22;3840;59.32098800;18.06423600;2023-06-10T11:55:56;18.60;98.80
7598;DHT22;3840;59.32098800;18.06423600;2023-06-10T11:58:22;18.50;98.50
7598;DHT22;3840;59.32098800;18.06423600;2023-06-10T12:00:49;18.50;98.40
7598;DHT22;3840;59.32098800;18.06423600;2023-06-10T12:03:17;18.50;98.30
7598;DHT22;3840;59.32098800;18.06423600;2023-06-10T12:06:04;18.50;98.40
7598;DHT22;3840;59.32098800;18.06423600;2023-06-10T12:08:30;18.50;98.20
7598;DHT22;3840;59.32098800;18.06423600;2023-06-10T12:10:57;18.50;98.20
7598;DHT22;3840;59.32098800;18.06423600;2023-06-10T12:13:25;18.50;98.30
7598;DHT22;3840;59.32098800;18.06423600;2023-06-10T12:15:52;18.60;97.70
7598;DHT22;3840;59.32098800;18.06423600;2023-06-10T12:18:19;18.60;98.40
7598;DHT22;3840;59.32098800;18.06423600;2023-06-10T12:20:45;18.60;98.20
7598;DHT22;3840;59.32098800;18.06423600;2023-06-10T12:23:12;18.60;97.10
7598;DHT22;3840;59.32098800;18.06423600;2023-06-10T12:25:38;18.00;96.60
7598;DHT22;3840;59.32098800;18.06423600;2023-06-10T12:28:05;18.70;97.60
7598;DHT22;3840;59.32098800;18.06423600;2023-06-10T12:30:32;18.60;97.30
7598;DHT22;3840;59.32098800;18.06423600;2023-06-10T12:32:58;18.60;97.50
7598;DHT22;3840;59.32098800;18.06423600;2023-06-10T12:35:26;18.50;97.40
7598;DHT22;3840;59.32098800;18.06423600;2023-06-10T12:38:04;18.50;97.20
7598;DHT22;3840;59.32098800;18.06423600;2023-06-10T12:40:42;18.60;97.90
7598;DHT22;3840;59.32098800;18.06423600;2023-06-10T12:43:09;18.60;97.00
7598;DHT22;3840;59.32098800;18.06423600;2023-06-10T12:45:39;18.70;97.40
7598;DHT22;3840;59.32098800;18.06423600;2023-06-10T12:48:22;18.80;97.50
7598;DHT22;3840;59.32098800;18.06423600;2023-06-10T12:50:55;18.70;96.90
7598;DHT22;3840;59.32098800;18.06423600;2023-06-10T12:53:22;18.70;96.80
7598;DHT22;3840;59.32098800;18.06423600;2023-06-10T12:55:49;18.70;96.30
7598;DHT22;3840;59.32098800;18.06423600;2023-06-10T12:58:14;18.70;96.30
7598;DHT22;3840;59.32098800;18.06423600;2023-06-10T13:00:40;18.60;96.50
7598;DHT22;3840;59.32098800;18.06423600;2023-06-10T13:03:08;18.70;96.60
7598;DHT22;3840;59.32098800;18.06423600;2023-06-10T13:05:35;18.70;97.00
7598;DHT22;3840;59.32098800;18.06423600;2023-06-10T13:08:07;18.70;97.20
7598;DHT22;3840;59.32098800;18.06423600;2023-06-10T13:10:36;18.70;97.00
7598;DHT22;3840;59.32098800;18.06423600;2023-06-10T13:13:02;18.70;97.20
7598;DHT22;3840;59.32098800;18.06423600;2023-06-10T13:15:31;18.50;96.20
7598;DHT22;3840;59.32098800;18.06423600;2023-06-10T13:17:56;18.50;96.10
7598;DHT22;3840;59.32098800;18.06423600;2023-06-10T13:20:22;18.60;95.80
7598;DHT22;3840;59.32098800;18.06423600;2023-06-10T13:22:48;18.60;95.80
7598;DHT22;3840;59.32098800;18.06423600;2023-06-10T13:25:15;18.50;95.90
7598;DHT22;3840;59.32098800;18.06423600;2023-06-10T13:27:40;18.60;95.90
7598;DHT22;3840;59.32098800;18.06423600;2023-06-10T13:30:08;18.60;96.10
7598;DHT22;3840;59.32098800;18.06423600;2023-06-10T13:32:35;18.50;95.90
7598;DHT22;3840;59.32098800;18.06423600;2023-06-10T13:35:01;18.50;96.30
7598;DHT22;3840;59.32098800;18.06423600;2023-06-10T13:37:27;18.40;96.20
7598;DHT22;3840;59.32098800;18.06423600;2023-06-10T13:39:52;18.40;95.50
7598;DHT22;3840;59.32098800;18.06423600;2023-06-10T13:42:19;18.60;95.50
7598;DHT22;3840;59.32098800;18.06423600;2023-06-10T13:44:45;18.50;95.60
7598;DHT22;3840;59.32098800;18.06423600;2023-06-10T13:47:11;18.50;95.60
7598;DHT22;3840;59.32098800;18.06423600;2023-06-10T13:49:37;18.50;95.70
7598;DHT22;3840;59.32098800;18.06423600;2023-06-10T13:52:03;18.50;96.10
7598;DHT22;3840;59.32098800;18.06423600;2023-06-10T13:54:29;18.60;95.60
7598;DHT22;3840;59.32098800;18.06423600;2023-06-10T13:56:55;18.60;95.00
7598;DHT22;3840;59.32098800;18.06423600;2023-06-10T13:59:20;18.50;95.60
7598;DHT22;3840;59.32098800;18.06423600;2023-06-10T14:01:47;18.60;95.80
7598;DHT22;3840;59.32098800;18.06423600;2023-06-10T14:04:12;18.60;95.70
7598;DHT22;3840;59.32098800;18.06423600;2023-06-10T14:06:38;18.50;95.30
7598;DHT22;3840;59.32098800;18.06423600;2023-06-10T14:09:04;18.50;95.30